<?xml version="1.0" encoding="UTF-8" standalone="no" ?>
<gpx xmlns="http://www.topografix.com/GPX/1/1" xmlns:xsi="http://www.w3.org/2001/XMLSchema-instance" xsi:schemaLocation="http://www.topografix.com/GPX/1/1 http://www.topografix.com/GPX/1/1/gpx.xsd" version="1.1" creator="VisuGPX - https://www.visugpx.com">
  <metadata>
    <name>Vacances 2021</name>
  </metadata>
  <trk>
    <name><![CDATA[Journal actif: 2021-07-22 15:05]]></name>
    <trkseg>
      <trkpt lat="49.26943" lon="6.17502">
        <ele>163.08</ele>
        <time>2021-07-22T17:05:23Z</time>
      </trkpt>
      <trkpt lat="49.26573" lon="6.1763">
        <ele>162.12</ele>
        <time>2021-07-22T17:05:40Z</time>
      </trkpt>
      <trkpt lat="49.26414" lon="6.17659">
        <ele>163.56</ele>
        <time>2021-07-22T17:05:48Z</time>
      </trkpt>
      <trkpt lat="49.26311" lon="6.17657">
        <ele>166.93</ele>
        <time>2021-07-22T17:05:56Z</time>
      </trkpt>
      <trkpt lat="49.26305" lon="6.17654">
        <ele>166.93</ele>
        <time>2021-07-22T17:05:57Z</time>
      </trkpt>
      <trkpt lat="49.263" lon="6.17652">
        <ele>166.93</ele>
        <time>2021-07-22T17:05:58Z</time>
      </trkpt>
      <trkpt lat="49.26295" lon="6.1765">
        <ele>167.41</ele>
        <time>2021-07-22T17:05:59Z</time>
      </trkpt>
      <trkpt lat="49.26291" lon="6.17647">
        <ele>167.41</ele>
        <time>2021-07-22T17:06:00Z</time>
      </trkpt>
      <trkpt lat="49.26288" lon="6.1764">
        <ele>167.41</ele>
        <time>2021-07-22T17:06:01Z</time>
      </trkpt>
      <trkpt lat="49.26285" lon="6.17632">
        <ele>167.41</ele>
        <time>2021-07-22T17:06:02Z</time>
      </trkpt>
      <trkpt lat="49.2628" lon="6.17624">
        <ele>167.41</ele>
        <time>2021-07-22T17:06:03Z</time>
      </trkpt>
      <trkpt lat="49.26275" lon="6.17621">
        <ele>167.41</ele>
        <time>2021-07-22T17:06:04Z</time>
      </trkpt>
      <trkpt lat="49.26269" lon="6.17619">
        <ele>167.89</ele>
        <time>2021-07-22T17:06:05Z</time>
      </trkpt>
      <trkpt lat="49.26263" lon="6.17624">
        <ele>167.89</ele>
        <time>2021-07-22T17:06:06Z</time>
      </trkpt>
      <trkpt lat="49.26255" lon="6.17638">
        <ele>167.89</ele>
        <time>2021-07-22T17:06:07Z</time>
      </trkpt>
      <trkpt lat="49.26255" lon="6.17638">
        <ele>167.89</ele>
        <time>2021-07-22T17:06:08Z</time>
      </trkpt>
      <trkpt lat="49.26255" lon="6.17647">
        <ele>167.89</ele>
        <time>2021-07-22T17:06:09Z</time>
      </trkpt>
      <trkpt lat="49.26255" lon="6.17656">
        <ele>167.89</ele>
        <time>2021-07-22T17:06:10Z</time>
      </trkpt>
      <trkpt lat="49.26259" lon="6.17665">
        <ele>167.89</ele>
        <time>2021-07-22T17:06:12Z</time>
      </trkpt>
      <trkpt lat="49.26263" lon="6.17676">
        <ele>167.89</ele>
        <time>2021-07-22T17:06:13Z</time>
      </trkpt>
      <trkpt lat="49.26262" lon="6.17683">
        <ele>167.89</ele>
        <time>2021-07-22T17:06:14Z</time>
      </trkpt>
      <trkpt lat="49.26261" lon="6.17691">
        <ele>167.89</ele>
        <time>2021-07-22T17:06:15Z</time>
      </trkpt>
      <trkpt lat="49.26259" lon="6.17701">
        <ele>167.89</ele>
        <time>2021-07-22T17:06:16Z</time>
      </trkpt>
      <trkpt lat="49.26252" lon="6.17755">
        <ele>167.41</ele>
        <time>2021-07-22T17:06:21Z</time>
      </trkpt>
      <trkpt lat="49.2625" lon="6.17765">
        <ele>167.41</ele>
        <time>2021-07-22T17:06:22Z</time>
      </trkpt>
      <trkpt lat="49.26249" lon="6.17774">
        <ele>166.93</ele>
        <time>2021-07-22T17:06:23Z</time>
      </trkpt>
      <trkpt lat="49.26234" lon="6.17787">
        <ele>166.93</ele>
        <time>2021-07-22T17:06:25Z</time>
      </trkpt>
      <trkpt lat="49.26231" lon="6.17795">
        <ele>166.93</ele>
        <time>2021-07-22T17:06:26Z</time>
      </trkpt>
      <trkpt lat="49.26229" lon="6.17804">
        <ele>166.93</ele>
        <time>2021-07-22T17:06:27Z</time>
      </trkpt>
      <trkpt lat="49.26229" lon="6.17813">
        <ele>166.93</ele>
        <time>2021-07-22T17:06:28Z</time>
      </trkpt>
      <trkpt lat="49.2623" lon="6.17819">
        <ele>166.93</ele>
        <time>2021-07-22T17:06:29Z</time>
      </trkpt>
      <trkpt lat="49.26234" lon="6.17824">
        <ele>167.41</ele>
        <time>2021-07-22T17:06:30Z</time>
      </trkpt>
      <trkpt lat="49.26239" lon="6.1783">
        <ele>166.93</ele>
        <time>2021-07-22T17:06:31Z</time>
      </trkpt>
      <trkpt lat="49.26244" lon="6.17833">
        <ele>166.93</ele>
        <time>2021-07-22T17:06:32Z</time>
      </trkpt>
      <trkpt lat="49.26256" lon="6.17826">
        <ele>167.41</ele>
        <time>2021-07-22T17:06:33Z</time>
      </trkpt>
      <trkpt lat="49.26263" lon="6.17819">
        <ele>167.41</ele>
        <time>2021-07-22T17:06:34Z</time>
      </trkpt>
      <trkpt lat="49.26337" lon="6.17772">
        <ele>164.04</ele>
        <time>2021-07-22T17:06:42Z</time>
      </trkpt>
      <trkpt lat="49.26488" lon="6.1769">
        <ele>162.12</ele>
        <time>2021-07-22T17:06:52Z</time>
      </trkpt>
      <trkpt lat="49.26712" lon="6.17596">
        <ele>162.6</ele>
        <time>2021-07-22T17:07:04Z</time>
      </trkpt>
      <trkpt lat="49.26988" lon="6.17507">
        <ele>164.52</ele>
        <time>2021-07-22T17:07:17Z</time>
      </trkpt>
      <trkpt lat="49.27346" lon="6.17418">
        <ele>172.69</ele>
        <time>2021-07-22T17:07:33Z</time>
      </trkpt>
      <trkpt lat="49.27681" lon="6.17342">
        <ele>163.56</ele>
        <time>2021-07-22T17:07:48Z</time>
      </trkpt>
      <trkpt lat="49.28072" lon="6.17286">
        <ele>164.04</ele>
        <time>2021-07-22T17:08:05Z</time>
      </trkpt>
      <trkpt lat="49.28336" lon="6.17269">
        <ele>163.56</ele>
        <time>2021-07-22T17:08:17Z</time>
      </trkpt>
      <trkpt lat="49.28519" lon="6.17335">
        <ele>159.72</ele>
        <time>2021-07-22T17:08:26Z</time>
      </trkpt>
      <trkpt lat="49.28727" lon="6.17375">
        <ele>159.72</ele>
        <time>2021-07-22T17:08:36Z</time>
      </trkpt>
      <trkpt lat="49.28897" lon="6.1734">
        <ele>161.64</ele>
        <time>2021-07-22T17:08:44Z</time>
      </trkpt>
      <trkpt lat="49.29059" lon="6.17238">
        <ele>160.2</ele>
        <time>2021-07-22T17:08:52Z</time>
      </trkpt>
      <trkpt lat="49.29196" lon="6.17076">
        <ele>160.2</ele>
        <time>2021-07-22T17:09:00Z</time>
      </trkpt>
      <trkpt lat="49.29312" lon="6.16845">
        <ele>161.64</ele>
        <time>2021-07-22T17:09:09Z</time>
      </trkpt>
      <trkpt lat="49.29518" lon="6.16328">
        <ele>167.89</ele>
        <time>2021-07-22T17:09:27Z</time>
      </trkpt>
      <trkpt lat="49.29619" lon="6.15998">
        <ele>171.25</ele>
        <time>2021-07-22T17:09:38Z</time>
      </trkpt>
      <trkpt lat="49.29706" lon="6.15496">
        <ele>165.96</ele>
        <time>2021-07-22T17:09:53Z</time>
      </trkpt>
      <trkpt lat="49.2984" lon="6.14705">
        <ele>165</ele>
        <time>2021-07-22T17:10:16Z</time>
      </trkpt>
      <trkpt lat="49.29954" lon="6.143">
        <ele>173.66</ele>
        <time>2021-07-22T17:10:29Z</time>
      </trkpt>
      <trkpt lat="49.30093" lon="6.13938">
        <ele>181.83</ele>
        <time>2021-07-22T17:10:43Z</time>
      </trkpt>
      <trkpt lat="49.30304" lon="6.13396">
        <ele>183.75</ele>
        <time>2021-07-22T17:11:01Z</time>
      </trkpt>
      <trkpt lat="49.30487" lon="6.12896">
        <ele>184.23</ele>
        <time>2021-07-22T17:11:19Z</time>
      </trkpt>
      <trkpt lat="49.30546" lon="6.12783">
        <ele>182.79</ele>
        <time>2021-07-22T17:11:25Z</time>
      </trkpt>
      <trkpt lat="49.30609" lon="6.12691">
        <ele>188.08</ele>
        <time>2021-07-22T17:11:32Z</time>
      </trkpt>
      <trkpt lat="49.3062" lon="6.12662">
        <ele>188.56</ele>
        <time>2021-07-22T17:11:33Z</time>
      </trkpt>
      <trkpt lat="49.3062" lon="6.12662">
        <ele>188.08</ele>
        <time>2021-07-22T17:11:34Z</time>
      </trkpt>
      <trkpt lat="49.30623" lon="6.12648">
        <ele>188.56</ele>
        <time>2021-07-22T17:11:35Z</time>
      </trkpt>
      <trkpt lat="49.30628" lon="6.12624">
        <ele>188.56</ele>
        <time>2021-07-22T17:11:36Z</time>
      </trkpt>
      <trkpt lat="49.30628" lon="6.12624">
        <ele>188.08</ele>
        <time>2021-07-22T17:11:37Z</time>
      </trkpt>
      <trkpt lat="49.3063" lon="6.12615">
        <ele>188.56</ele>
        <time>2021-07-22T17:11:38Z</time>
      </trkpt>
      <trkpt lat="49.30639" lon="6.12589">
        <ele>188.56</ele>
        <time>2021-07-22T17:11:41Z</time>
      </trkpt>
      <trkpt lat="49.30642" lon="6.12584">
        <ele>189.04</ele>
        <time>2021-07-22T17:11:42Z</time>
      </trkpt>
      <trkpt lat="49.30645" lon="6.12579">
        <ele>189.04</ele>
        <time>2021-07-22T17:11:43Z</time>
      </trkpt>
      <trkpt lat="49.30648" lon="6.12573">
        <ele>189.04</ele>
        <time>2021-07-22T17:11:44Z</time>
      </trkpt>
      <trkpt lat="49.30648" lon="6.12573">
        <ele>189.04</ele>
        <time>2021-07-22T17:11:45Z</time>
      </trkpt>
      <trkpt lat="49.30652" lon="6.12567">
        <ele>189.04</ele>
        <time>2021-07-22T17:11:46Z</time>
      </trkpt>
      <trkpt lat="49.30658" lon="6.12563">
        <ele>189.04</ele>
        <time>2021-07-22T17:11:47Z</time>
      </trkpt>
      <trkpt lat="49.30681" lon="6.12549">
        <ele>188.08</ele>
        <time>2021-07-22T17:11:50Z</time>
      </trkpt>
      <trkpt lat="49.30688" lon="6.12541">
        <ele>187.59</ele>
        <time>2021-07-22T17:11:51Z</time>
      </trkpt>
      <trkpt lat="49.30695" lon="6.12531">
        <ele>187.59</ele>
        <time>2021-07-22T17:11:52Z</time>
      </trkpt>
      <trkpt lat="49.307" lon="6.12518">
        <ele>188.08</ele>
        <time>2021-07-22T17:11:53Z</time>
      </trkpt>
      <trkpt lat="49.30705" lon="6.12505">
        <ele>187.59</ele>
        <time>2021-07-22T17:11:54Z</time>
      </trkpt>
      <trkpt lat="49.30709" lon="6.12491">
        <ele>187.11</ele>
        <time>2021-07-22T17:11:55Z</time>
      </trkpt>
      <trkpt lat="49.30711" lon="6.12476">
        <ele>185.67</ele>
        <time>2021-07-22T17:11:56Z</time>
      </trkpt>
      <trkpt lat="49.30713" lon="6.12461">
        <ele>184.23</ele>
        <time>2021-07-22T17:11:57Z</time>
      </trkpt>
      <trkpt lat="49.30711" lon="6.12446">
        <ele>184.23</ele>
        <time>2021-07-22T17:11:58Z</time>
      </trkpt>
      <trkpt lat="49.3071" lon="6.1243">
        <ele>184.23</ele>
        <time>2021-07-22T17:11:59Z</time>
      </trkpt>
      <trkpt lat="49.30708" lon="6.12402">
        <ele>184.23</ele>
        <time>2021-07-22T17:12:01Z</time>
      </trkpt>
      <trkpt lat="49.30709" lon="6.1239">
        <ele>184.71</ele>
        <time>2021-07-22T17:12:02Z</time>
      </trkpt>
      <trkpt lat="49.30712" lon="6.12367">
        <ele>184.71</ele>
        <time>2021-07-22T17:12:03Z</time>
      </trkpt>
      <trkpt lat="49.30712" lon="6.12367">
        <ele>185.19</ele>
        <time>2021-07-22T17:12:04Z</time>
      </trkpt>
      <trkpt lat="49.30716" lon="6.12354">
        <ele>185.67</ele>
        <time>2021-07-22T17:12:05Z</time>
      </trkpt>
      <trkpt lat="49.30757" lon="6.12212">
        <ele>180.87</ele>
        <time>2021-07-22T17:12:13Z</time>
      </trkpt>
      <trkpt lat="49.30841" lon="6.11943">
        <ele>178.94</ele>
        <time>2021-07-22T17:12:23Z</time>
      </trkpt>
      <trkpt lat="49.30949" lon="6.11664">
        <ele>178.46</ele>
        <time>2021-07-22T17:12:36Z</time>
      </trkpt>
      <trkpt lat="49.31026" lon="6.11556">
        <ele>178.46</ele>
        <time>2021-07-22T17:12:43Z</time>
      </trkpt>
      <trkpt lat="49.31026" lon="6.11556">
        <ele>178.46</ele>
        <time>2021-07-22T17:12:44Z</time>
      </trkpt>
      <trkpt lat="49.31032" lon="6.11549">
        <ele>178.46</ele>
        <time>2021-07-22T17:12:45Z</time>
      </trkpt>
      <trkpt lat="49.31037" lon="6.11544">
        <ele>178.46</ele>
        <time>2021-07-22T17:12:46Z</time>
      </trkpt>
      <trkpt lat="49.3104" lon="6.11539">
        <ele>177.98</ele>
        <time>2021-07-22T17:12:47Z</time>
      </trkpt>
      <trkpt lat="49.3104" lon="6.11576">
        <ele>177.98</ele>
        <time>2021-07-22T17:12:48Z</time>
      </trkpt>
      <trkpt lat="49.3104" lon="6.11576">
        <ele>177.5</ele>
        <time>2021-07-22T17:12:49Z</time>
      </trkpt>
      <trkpt lat="49.31063" lon="6.11564">
        <ele>176.54</ele>
        <time>2021-07-22T17:13:02Z</time>
      </trkpt>
      <trkpt lat="49.31067" lon="6.1151">
        <ele>177.02</ele>
        <time>2021-07-22T17:13:08Z</time>
      </trkpt>
      <trkpt lat="49.31074" lon="6.11503">
        <ele>178.46</ele>
        <time>2021-07-22T17:13:09Z</time>
      </trkpt>
      <trkpt lat="49.31092" lon="6.11484">
        <ele>178.46</ele>
        <time>2021-07-22T17:13:10Z</time>
      </trkpt>
      <trkpt lat="49.31177" lon="6.11404">
        <ele>177.98</ele>
        <time>2021-07-22T17:13:18Z</time>
      </trkpt>
      <trkpt lat="49.31293" lon="6.11294">
        <ele>179.42</ele>
        <time>2021-07-22T17:13:28Z</time>
      </trkpt>
      <trkpt lat="49.31381" lon="6.11183">
        <ele>180.38</ele>
        <time>2021-07-22T17:13:39Z</time>
      </trkpt>
      <trkpt lat="49.31405" lon="6.11147">
        <ele>179.9</ele>
        <time>2021-07-22T17:13:43Z</time>
      </trkpt>
      <trkpt lat="49.31411" lon="6.11143">
        <ele>179.9</ele>
        <time>2021-07-22T17:13:44Z</time>
      </trkpt>
      <trkpt lat="49.31416" lon="6.11139">
        <ele>180.38</ele>
        <time>2021-07-22T17:13:45Z</time>
      </trkpt>
      <trkpt lat="49.31422" lon="6.11135">
        <ele>180.38</ele>
        <time>2021-07-22T17:13:46Z</time>
      </trkpt>
      <trkpt lat="49.3143" lon="6.11132">
        <ele>180.38</ele>
        <time>2021-07-22T17:13:47Z</time>
      </trkpt>
      <trkpt lat="49.31438" lon="6.11134">
        <ele>179.9</ele>
        <time>2021-07-22T17:13:48Z</time>
      </trkpt>
      <trkpt lat="49.31446" lon="6.11136">
        <ele>179.9</ele>
        <time>2021-07-22T17:13:49Z</time>
      </trkpt>
      <trkpt lat="49.31456" lon="6.11139">
        <ele>179.9</ele>
        <time>2021-07-22T17:13:50Z</time>
      </trkpt>
      <trkpt lat="49.31465" lon="6.11142">
        <ele>180.38</ele>
        <time>2021-07-22T17:13:51Z</time>
      </trkpt>
      <trkpt lat="49.31636" lon="6.11234">
        <ele>176.54</ele>
        <time>2021-07-22T17:14:07Z</time>
      </trkpt>
      <trkpt lat="49.31708" lon="6.11276">
        <ele>175.58</ele>
        <time>2021-07-22T17:14:15Z</time>
      </trkpt>
      <trkpt lat="49.3174" lon="6.11293">
        <ele>175.58</ele>
        <time>2021-07-22T17:14:24Z</time>
      </trkpt>
      <trkpt lat="49.31759" lon="6.11305">
        <ele>177.02</ele>
        <time>2021-07-22T17:14:35Z</time>
      </trkpt>
      <trkpt lat="49.31839" lon="6.11343">
        <ele>177.5</ele>
        <time>2021-07-22T17:14:45Z</time>
      </trkpt>
      <trkpt lat="49.31975" lon="6.11401">
        <ele>176.54</ele>
        <time>2021-07-22T17:14:56Z</time>
      </trkpt>
      <trkpt lat="49.32042" lon="6.11409">
        <ele>177.02</ele>
        <time>2021-07-22T17:15:02Z</time>
      </trkpt>
      <trkpt lat="49.32159" lon="6.11416">
        <ele>176.54</ele>
        <time>2021-07-22T17:15:14Z</time>
      </trkpt>
      <trkpt lat="49.32172" lon="6.11417">
        <ele>176.06</ele>
        <time>2021-07-22T17:15:15Z</time>
      </trkpt>
      <trkpt lat="49.32172" lon="6.11417">
        <ele>175.1</ele>
        <time>2021-07-22T17:15:16Z</time>
      </trkpt>
      <trkpt lat="49.32181" lon="6.11438">
        <ele>174.62</ele>
        <time>2021-07-22T17:15:17Z</time>
      </trkpt>
      <trkpt lat="49.32181" lon="6.11438">
        <ele>174.14</ele>
        <time>2021-07-22T17:15:18Z</time>
      </trkpt>
      <trkpt lat="49.32185" lon="6.11446">
        <ele>174.14</ele>
        <time>2021-07-22T17:15:19Z</time>
      </trkpt>
      <trkpt lat="49.32188" lon="6.11451">
        <ele>173.66</ele>
        <time>2021-07-22T17:15:20Z</time>
      </trkpt>
      <trkpt lat="49.32196" lon="6.11453">
        <ele>173.17</ele>
        <time>2021-07-22T17:15:21Z</time>
      </trkpt>
      <trkpt lat="49.322" lon="6.11452">
        <ele>175.1</ele>
        <time>2021-07-22T17:15:22Z</time>
      </trkpt>
      <trkpt lat="49.32205" lon="6.11452">
        <ele>174.62</ele>
        <time>2021-07-22T17:15:23Z</time>
      </trkpt>
      <trkpt lat="49.3221" lon="6.11446">
        <ele>174.62</ele>
        <time>2021-07-22T17:15:24Z</time>
      </trkpt>
      <trkpt lat="49.32213" lon="6.1144">
        <ele>174.62</ele>
        <time>2021-07-22T17:15:25Z</time>
      </trkpt>
      <trkpt lat="49.32216" lon="6.11434">
        <ele>174.62</ele>
        <time>2021-07-22T17:15:26Z</time>
      </trkpt>
      <trkpt lat="49.3222" lon="6.11429">
        <ele>174.62</ele>
        <time>2021-07-22T17:15:27Z</time>
      </trkpt>
      <trkpt lat="49.32224" lon="6.11425">
        <ele>174.62</ele>
        <time>2021-07-22T17:15:28Z</time>
      </trkpt>
      <trkpt lat="49.32229" lon="6.11422">
        <ele>175.1</ele>
        <time>2021-07-22T17:15:29Z</time>
      </trkpt>
      <trkpt lat="49.32239" lon="6.11417">
        <ele>175.1</ele>
        <time>2021-07-22T17:15:30Z</time>
      </trkpt>
      <trkpt lat="49.32239" lon="6.11417">
        <ele>175.1</ele>
        <time>2021-07-22T17:15:31Z</time>
      </trkpt>
      <trkpt lat="49.32245" lon="6.11417">
        <ele>174.62</ele>
        <time>2021-07-22T17:15:32Z</time>
      </trkpt>
      <trkpt lat="49.32273" lon="6.11425">
        <ele>174.62</ele>
        <time>2021-07-22T17:15:35Z</time>
      </trkpt>
      <trkpt lat="49.3228" lon="6.11431">
        <ele>174.62</ele>
        <time>2021-07-22T17:15:36Z</time>
      </trkpt>
      <trkpt lat="49.3228" lon="6.11431">
        <ele>174.62</ele>
        <time>2021-07-22T17:15:37Z</time>
      </trkpt>
      <trkpt lat="49.32286" lon="6.11438">
        <ele>174.62</ele>
        <time>2021-07-22T17:15:38Z</time>
      </trkpt>
      <trkpt lat="49.32297" lon="6.11454">
        <ele>174.62</ele>
        <time>2021-07-22T17:15:39Z</time>
      </trkpt>
      <trkpt lat="49.32303" lon="6.11464">
        <ele>174.62</ele>
        <time>2021-07-22T17:15:40Z</time>
      </trkpt>
      <trkpt lat="49.32374" lon="6.11585">
        <ele>173.17</ele>
        <time>2021-07-22T17:15:51Z</time>
      </trkpt>
      <trkpt lat="49.32476" lon="6.11775">
        <ele>172.69</ele>
        <time>2021-07-22T17:16:03Z</time>
      </trkpt>
      <trkpt lat="49.32496" lon="6.11817">
        <ele>171.73</ele>
        <time>2021-07-22T17:16:07Z</time>
      </trkpt>
      <trkpt lat="49.32544" lon="6.11919">
        <ele>172.21</ele>
        <time>2021-07-22T17:16:14Z</time>
      </trkpt>
      <trkpt lat="49.32623" lon="6.12042">
        <ele>174.62</ele>
        <time>2021-07-22T17:16:25Z</time>
      </trkpt>
      <trkpt lat="49.32695" lon="6.12129">
        <ele>173.17</ele>
        <time>2021-07-22T17:16:34Z</time>
      </trkpt>
      <trkpt lat="49.32702" lon="6.12138">
        <ele>172.21</ele>
        <time>2021-07-22T17:16:35Z</time>
      </trkpt>
      <trkpt lat="49.32708" lon="6.12148">
        <ele>172.69</ele>
        <time>2021-07-22T17:16:36Z</time>
      </trkpt>
      <trkpt lat="49.32712" lon="6.12159">
        <ele>172.69</ele>
        <time>2021-07-22T17:16:37Z</time>
      </trkpt>
      <trkpt lat="49.32716" lon="6.12171">
        <ele>172.69</ele>
        <time>2021-07-22T17:16:38Z</time>
      </trkpt>
      <trkpt lat="49.32739" lon="6.12256">
        <ele>172.69</ele>
        <time>2021-07-22T17:16:46Z</time>
      </trkpt>
    </trkseg>
  </trk>
</gpx>